Pagina principale
METAR-TAF:

METAR-TAF

Aeroporti :

Rundu, Namibia

latitudine: 17-57-20S, longitudine: 019-43-25E, altezza: 1106 m

METAR: mancante

Ora: 21:49 (20:49 UTC)

Previsione

Il bollettino è stato emesso 3 ore e 49 minuti fa, alle 17:00 UTC
Previsione valida dal 22 alle 18 UTC al 23 alle 03 UTC
Vento 6 kt da est/nord-est
Visibilità 10 km o più
Poco nuvoloso ad un'altezza di 4000 ft

TAF: FYRU 221700Z 2218/2303 07006KT 9999 FEW040

Osservazioni e previsioni meteorologiche di più di 4000 aeroporti (messaggi METAR e TAF).

Le stazioni disponibili sono rappresentate dai dischi gialli e rossi sulla carta.

Puntare il mouse per vedere il nome della stazione.

Clicca sopra per visualizzare le osservazioni e previsioni meteorologiche.

Per cambiare la mappa : fare clic sui pulsanti verdi con una croce nera per ingrandire, il pulsante verde con un trattino per diminuire, o sulla freccia verde per le mappe adiacenti.


METAR-TAF: